TS15 weather

Cibolo Creek Ranch Airport
Marfa, Texas, United States

Public forecast

Using degrees Fahrenheit for public forecast. Weather courtesy of forecast.io.

Closest aviation weather report (METAR) to Cibolo Creek Ranch Airport

Closest report is Presidio Lely International Airport, 16.4 nm (30.3 km) SSW. Retrieved 2020/06/04 23:15 UTC (20 minutes ago):

KPRS 042315Z AUTO 13004KT 10SM CLR 40/12 A2981 RMK AO2 T04010117

Closest aviation forecast (TAF) to Cibolo Creek Ranch Airport

Closest forecast is Fort Stockton Pecos County Airport, 92.9 nm (172.0 km) NE. Retrieved 2020/06/04 18:42 UTC (5 hours ago):

TAF KFST 041738Z 0418/0518 14013G20KT P6SM SKC FM050200 15015KT P6SM SKC